Camp Wood, TX (78833)

10:59 PM CDT on October 22, 2014 (GMT -0500)
Bandera Electric Cooperative | Change Station
CLOSE
Current Station
Personal Weather Station
Location: Leakey, TX
Elevation: 1654 ft
Nearby Weather Stations

Elev 1654 ft 29.72 °N, 99.77 °W | Updated 4 minutes ago

Rain
Rain
66.3 °F
Feels Like 66.3 °F
N
0.0
Wind Variable Wind from SE
Gusts 0.0 mph

Today
High -- | Low -- °F
--% Chance of Precip.
Yesterday
High -- | Low -- °F
Precip. -- in
7:46 AM 7:02 PM
Waning Crescent, 1% visible
Pressure 30.15 in
Visibility 5.0 miles
Clouds Few 200 ft
Scattered Clouds 600 ft
Mostly Cloudy 4800 ft
Dew Point 60 °F
Humidity 81%
Rainfall 0.00 in
Snow Depth Not available.
UV 0 out of 12
Pollen 6.30 out of 12
Air Quality Not available.
Flu Activity Sporadic
METAR KECU 230330Z AUTO 06005KT 5SM -RA FEW002 SCT006 BKN048 16/16 A3015 RMK AO2 P0001

More Conditions Fewer Conditions

Pressure 30.15 in
Visibility 5.0 miles
Clouds Few 200 ft
Scattered Clouds 600 ft
Mostly Cloudy 4800 ft
Dew Point 60 °F
Humidity 81%
Rainfall 0.00 in
Snow Depth Not available.
UV 0 out of 12
Pollen 6.30 out of 12
Air Quality Not available.
Flu Activity Sporadic
METAR KECU 230330Z AUTO 06005KT 5SM -RA FEW002 SCT006 BKN048 16/16 A3015 RMK AO2 P0001

More Conditions Fewer Conditions

Nowcast | as of 10:50 PM CDT on October 22, 2014

Isolated to scattered light showers will continue across the Rio Grande plains...southern Edwards Plateau and Hill Country through 1 am CDT Thursday. This activity will move northeast around 15 mph. Some of this light rainfall is not reaching the ground. In areas were the rainfall does reach the ground...rainfall totals will generally be a few hundredths of an inch or less.

×

10-Day Weather Forecast

Almanac

Astronomy

Oct. 22, 2014 Rise Set
Actual Time 7:46 AM CDT 7:02 PM CDT
Civil Twilight 7:22 AM CDT 7:26 PM CDT
Nautical Twilight 6:54 AM CDT 7:54 PM CDT
Astronomical Twilight 6:26 AM CDT 8:22 PM CDT
Moon 6:34 AM CDT (10/22) 6:26 PM CDT (10/22)
Length of Visible Light 12h 04m
Length of Day
11h 15m
Tomorrow will be 1m 39s shorter.
Waning Crescent, 1% of the Moon is Illuminated
Today
Waning Crescent
Oct 23
New
Oct 30
First Quarter
Nov 6
Full
Nov 14
Last Quarter

Today's Extremes

State Highs State Lows

Community

WunderPhotos

Upload Photos

1,764,130 photos uploaded!

Nearby

Snow Depth

Station Depth Elevation
No new snow has been reported.

Earthquake Activity

City Distance Mag. Time & Date
No recent earthquake activity has been reported nearby.
Minimum magnitude displayed is 2.5.

Coastal Water Temperatures

Place Temperature
No Stations Reporting

Nearby Weather Stations